Pagrindinis puslapis
METAR-TAF:

METAR-TAF

Oro uostai :

Shōnai, Japonija

platuma: 38-49N, ilguma: 139-47E, Aukštis: 22 m

Dabartinis oras

Ataskaita buvo paskelbta 51 minutes, ne 02:00 UTC
Vėjas 21 kt iš Vakarų
Temperatūra 8°C
Drėgmė 57%
Slėgis 1013 hPa
Matomumas 10 km arba daugiau
Mažai debesys ne aukštis 1500 ft
Išsisklaidę debesys ne aukštis 3000 ft

METAR: RJSY 200200Z 28021KT 9999 FEW015 SCT030 08/M00 Q1013

Laikas: 11:51 (02:51 UTC)


TAF: trūkstamas

Orai ataskaitas ir orų prognozės (METAR, TAF).

turimą stotys yra geltonos ir raudonos taškus žemėlapyje.

Perkelti pele per norėdami pamatyti stoties vardą.

Tada spustelėkite, norėdami matyti oro stebėjimo ir prognozės.

Norėdami pakeisti žemėlapį: spustelėkite ant žalios mygtukų su juodo kryžiaus žemyn,; žalią mygtuką su brūkšneliu, jei norite nutolinti; arba žalių rodyklių gretimoms žemėlapius.


METAR-TAF: